Time;durP1;ratioP1;P1;durP2;ratioP2;P2;SDS_P1;SDS_P2;PMS_P1;PMS_P2;Temp;Humidity;BMP_temperature;BMP_pressure;BME280_temperature;BME280_humidity;BME280_pressure;Samples;Min_cycle;Max_cycle;Signal;HPM_P1;HPM_P2
2023/09/02 00:00:31;;;;;;;3.65;2.90;;;;;;;;;;5014315;28;20038;-86
2023/09/02 00:02:57;;;;;;;4.00;3.22;;;;;;;;;;4995786;28;20033;-85
2023/09/02 00:05:23;;;;;;;3.83;2.90;;;;;;;;;;4997189;28;20103;-86
2023/09/02 00:07:49;;;;;;;4.28;2.65;;;;;;;;;;4980569;28;20034;-87
2023/09/02 00:10:15;;;;;;;2.72;2.35;;;;;;;;;;4996631;28;20018;-85
2023/09/02 00:12:41;;;;;;;3.20;2.70;;;;;;;;;;5013885;28;20201;-86
2023/09/02 00:15:07;;;;;;;3.17;2.80;;;;;;;;;;4997822;28;20253;-86
2023/09/02 00:17:34;;;;;;;3.72;2.90;;;;;;;;;;5001237;28;20048;-87
2023/09/02 00:19:59;;;;;;;4.38;3.13;;;;;;;;;;5018554;28;20092;-86
2023/09/02 00:22:25;;;;;;;3.38;3.03;;;;;;;;;;5017981;28;20026;-86
2023/09/02 00:24:50;;;;;;;3.67;2.72;;;;;;;;;;5017810;28;20438;-86
2023/09/02 00:27:16;;;;;;;3.47;2.47;;;;;;;;;;4999858;28;20041;-85
2023/09/02 00:29:41;;;;;;;3.45;2.70;;;;;;;;;;5018042;28;20049;-87
2023/09/02 00:32:07;;;;;;;4.57;2.80;;;;;;;;;;5000343;28;20419;-84
2023/09/02 00:34:32;;;;;;;3.72;2.67;;;;;;;;;;5018277;28;20026;-86
2023/09/02 00:36:58;;;;;;;3.33;2.50;;;;;;;;;;5001467;28;20029;-87
2023/09/02 00:39:23;;;;;;;4.03;2.75;;;;;;;;;;5018168;28;20021;-87
2023/09/02 00:41:52;;;;;;;3.15;2.60;;;;;;;;;;5000220;28;20053;-87
2023/09/02 00:44:18;;;;;;;3.40;2.40;;;;;;;;;;5017993;28;20037;-85
2023/09/02 00:46:45;;;;;;;4.43;2.13;;;;;;;;;;4999425;28;20125;-85
2023/09/02 00:49:10;;;;;;;3.03;2.50;;;;;;;;;;4999051;28;20033;-85
2023/09/02 00:51:36;;;;;;;4.60;2.45;;;;;;;;;;5017324;28;20482;-87
2023/09/02 00:54:01;;;;;;;2.88;2.08;;;;;;;;;;4999709;28;20036;-86
2023/09/02 00:56:28;;;;;;;3.72;2.20;;;;;;;;;;4999627;28;20029;-87
2023/09/02 00:59:02;;;;;;;12.18;2.70;;;;;;;;;;4999992;28;20030;-86
2023/09/02 01:01:29;;;;;;;4.88;2.40;;;;;;;;;;4999279;28;20485;-88
2023/09/02 01:03:55;;;;;;;3.72;2.25;;;;;;;;;;5017850;28;20026;-86
2023/09/02 01:06:21;;;;;;;2.70;2.17;;;;;;;;;;5017448;28;20030;-87
2023/09/02 01:08:47;;;;;;;4.30;1.98;;;;;;;;;;5017626;28;20084;-86
2023/09/02 01:11:13;;;;;;;3.38;2.05;;;;;;;;;;5016496;28;20037;-86
2023/09/02 01:13:39;;;;;;;5.72;2.30;;;;;;;;;;5016616;28;20474;-85
2023/09/02 01:16:04;;;;;;;4.63;2.85;;;;;;;;;;4999415;28;20033;-85
2023/09/02 01:18:30;;;;;;;4.97;2.50;;;;;;;;;;5016885;28;20034;-86
2023/09/02 01:21:15;;;;;;;3.08;2.35;;;;;;;;;;4999140;28;20030;-83
2023/09/02 01:24:21;;;;;;;4.35;2.33;;;;;;;;;;4999873;28;20117;-89
2023/09/02 01:27:14;;;;;;;3.28;2.50;;;;;;;;;;4961799;28;20091;-86
2023/09/02 01:30:12;;;;;;;2.10;1.90;;;;;;;;;;5025857;28;20263;-88
2023/09/02 01:32:42;;;;;;;3.72;2.35;;;;;;;;;;5013156;28;20427;-85
2023/09/02 01:35:10;;;;;;;3.33;2.35;;;;;;;;;;5010816;28;20116;-86
2023/09/02 01:37:43;;;;;;;3.83;1.98;;;;;;;;;;5017454;28;20065;-85
2023/09/02 01:40:14;;;;;;;3.42;2.70;;;;;;;;;;5018691;28;20025;-88
2023/09/02 01:42:40;;;;;;;3.50;2.10;;;;;;;;;;5036635;28;20025;-87
2023/09/02 01:45:07;;;;;;;5.25;2.45;;;;;;;;;;5019070;28;20097;-87
2023/09/02 01:47:34;;;;;;;4.18;2.22;;;;;;;;;;5018837;28;20021;-87
2023/09/02 01:50:03;;;;;;;2.55;2.10;;;;;;;;;;5019351;28;20017;-86
2023/09/02 01:52:29;;;;;;;2.55;2.10;;;;;;;;;;5017944;28;20033;-84
2023/09/02 01:54:55;;;;;;;6.18;3.10;;;;;;;;;;5036382;28;20032;-85
2023/09/02 01:57:21;;;;;;;3.30;2.45;;;;;;;;;;5036658;28;20018;-84
2023/09/02 01:59:46;;;;;;;3.10;2.78;;;;;;;;;;5019622;28;20063;-86
2023/09/02 02:02:16;;;;;;;3.47;1.67;;;;;;;;;;5039073;28;20052;-86
2023/09/02 02:04:43;;;;;;;5.32;2.40;;;;;;;;;;5019529;28;20065;-87
2023/09/02 02:07:13;;;;;;;3.30;2.35;;;;;;;;;;5019111;28;20535;-86
2023/09/02 02:09:43;;;;;;;3.42;2.28;;;;;;;;;;5017120;28;20021;-84
2023/09/02 02:12:10;;;;;;;2.05;1.90;;;;;;;;;;5017297;28;20021;-85
2023/09/02 02:14:35;;;;;;;3.58;1.85;;;;;;;;;;5018077;28;20044;-86
2023/09/02 02:17:03;;;;;;;2.40;1.90;;;;;;;;;;5035790;28;20329;-87
2023/09/02 02:19:29;;;;;;;2.72;2.20;;;;;;;;;;5035300;28;20253;-84
2023/09/02 02:21:55;;;;;;;2.33;2.08;;;;;;;;;;5036461;28;20105;-85
2023/09/02 02:24:20;;;;;;;2.63;2.03;;;;;;;;;;5035424;28;20053;-84
2023/09/02 02:26:46;;;;;;;2.13;1.85;;;;;;;;;;5017721;28;20378;-86
2023/09/02 02:29:11;;;;;;;4.25;2.42;;;;;;;;;;5018206;28;20124;-87
2023/09/02 02:31:37;;;;;;;2.45;2.25;;;;;;;;;;5034419;28;20044;-87
2023/09/02 02:34:03;;;;;;;6.47;2.10;;;;;;;;;;5018745;28;20025;-87
2023/09/02 02:36:29;;;;;;;4.63;1.90;;;;;;;;;;5017543;28;20590;-86
2023/09/02 02:38:54;;;;;;;3.40;2.72;;;;;;;;;;5016558;28;20029;-85
2023/09/02 02:41:20;;;;;;;5.53;2.55;;;;;;;;;;5017905;28;20079;-86
2023/09/02 02:43:45;;;;;;;3.80;1.98;;;;;;;;;;5035818;28;20083;-87
2023/09/02 02:46:11;;;;;;;2.67;2.45;;;;;;;;;;5017198;28;20060;-86
2023/09/02 02:48:36;;;;;;;2.63;2.15;;;;;;;;;;5017356;28;20253;-87
2023/09/02 02:51:02;;;;;;;5.82;2.17;;;;;;;;;;5017855;28;20029;-88
2023/09/02 02:53:28;;;;;;;3.92;2.17;;;;;;;;;;5034914;28;20029;-87
2023/09/02 02:55:53;;;;;;;6.20;2.70;;;;;;;;;;5017042;28;20109;-86
2023/09/02 02:58:19;;;;;;;3.58;2.53;;;;;;;;;;5017407;28;20384;-86
2023/09/02 03:00:46;;;;;;;2.75;2.10;;;;;;;;;;5016519;28;20052;-85
2023/09/02 03:03:12;;;;;;;2.50;2.30;;;;;;;;;;5016807;28;20025;-85
2023/09/02 03:05:39;;;;;;;3.20;2.13;;;;;;;;;;5017245;28;20461;-87
2023/09/02 03:08:06;;;;;;;3.08;1.90;;;;;;;;;;5026134;28;20330;-84
2023/09/02 03:10:34;;;;;;;2.33;2.13;;;;;;;;;;5016714;28;20048;-86
2023/09/02 03:13:00;;;;;;;4.53;2.40;;;;;;;;;;5035474;28;20025;-86
2023/09/02 03:15:25;;;;;;;3.80;2.28;;;;;;;;;;5016995;28;20025;-84
2023/09/02 03:17:51;;;;;;;3.78;2.10;;;;;;;;;;5017628;28;20021;-86
2023/09/02 03:20:17;;;;;;;4.40;2.20;;;;;;;;;;5035375;28;20099;-86
2023/09/02 03:22:42;;;;;;;5.88;2.42;;;;;;;;;;5016411;28;20033;-86
2023/09/02 03:25:08;;;;;;;5.90;2.50;;;;;;;;;;5034635;28;20053;-85
2023/09/02 03:27:38;;;;;;;3.05;1.98;;;;;;;;;;5017113;28;20025;-86
2023/09/02 03:30:07;;;;;;;3.10;2.72;;;;;;;;;;5035226;28;20049;-84
2023/09/02 03:32:34;;;;;;;2.47;2.28;;;;;;;;;;5035132;28;20021;-85
2023/09/02 03:35:00;;;;;;;3.67;2.08;;;;;;;;;;5016128;28;20112;-87
2023/09/02 03:37:26;;;;;;;2.55;2.33;;;;;;;;;;5016610;28;20064;-84
2023/09/02 03:39:55;;;;;;;3.35;2.22;;;;;;;;;;5034515;28;20017;-86
2023/09/02 03:42:20;;;;;;;3.97;2.88;;;;;;;;;;5016388;28;20061;-86
2023/09/02 03:44:46;;;;;;;5.50;3.05;;;;;;;;;;5034867;28;20026;-85
2023/09/02 03:47:17;;;;;;;3.53;2.42;;;;;;;;;;5016598;28;20117;-86
2023/09/02 03:49:43;;;;;;;;;;;;;;;;;;5034791;28;20025;-86
2023/09/02 03:52:08;;;;;;;3.97;2.53;;;;;;;;;;5017165;28;19932;-83
2023/09/02 03:54:35;;;;;;;2.90;2.33;;;;;;;;;;5033576;28;20033;-87
2023/09/02 03:57:00;;;;;;;3.63;2.58;;;;;;;;;;5016624;28;20014;-87
2023/09/02 03:59:26;;;;;;;3.05;2.30;;;;;;;;;;5034154;28;20032;-86
2023/09/02 04:01:51;;;;;;;2.70;2.40;;;;;;;;;;5016452;28;20415;-85
2023/09/02 04:04:17;;;;;;;3.20;2.90;;;;;;;;;;5034140;28;20040;-85
2023/09/02 04:06:42;;;;;;;6.95;2.97;;;;;;;;;;5018302;28;20025;-86
2023/09/02 04:09:08;;;;;;;4.18;2.95;;;;;;;;;;5035226;28;20494;-86
2023/09/02 04:11:33;;;;;;;3.60;2.92;;;;;;;;;;5017330;28;20029;-86
2023/09/02 04:14:00;;;;;;;4.85;2.83;;;;;;;;;;5017414;28;20120;-87
2023/09/02 04:16:26;;;;;;;3.55;2.90;;;;;;;;;;5016033;28;20033;-86
2023/09/02 04:18:52;;;;;;;6.47;3.65;;;;;;;;;;5033728;28;20021;-85
2023/09/02 04:21:18;;;;;;;3.80;2.63;;;;;;;;;;5016379;28;20030;-85
2023/09/02 04:23:44;;;;;;;4.82;3.15;;;;;;;;;;5034979;28;20025;-85
2023/09/02 04:26:09;;;;;;;12.05;7.28;;;;;;;;;;5017439;28;20033;-85
2023/09/02 04:28:35;;;;;;;5.65;3.25;;;;;;;;;;5034152;28;20045;-85
2023/09/02 04:31:01;;;;;;;5.25;3.00;;;;;;;;;;5016451;28;20049;-87
2023/09/02 04:33:26;;;;;;;9.05;2.88;;;;;;;;;;5034005;28;20473;-86
2023/09/02 04:35:53;;;;;;;6.95;3.50;;;;;;;;;;5016436;28;20530;-85
2023/09/02 04:38:19;;;;;;;5.50;3.30;;;;;;;;;;5016552;28;20017;-86
2023/09/02 04:40:45;;;;;;;5.75;2.75;;;;;;;;;;5034110;28;20064;-87
2023/09/02 04:43:12;;;;;;;4.28;3.38;;;;;;;;;;5034178;28;20350;-87
2023/09/02 04:45:40;;;;;;;6.13;3.50;;;;;;;;;;5033284;28;20033;-86
2023/09/02 04:48:08;;;;;;;7.90;3.83;;;;;;;;;;5027786;28;20083;-87
2023/09/02 04:50:35;;;;;;;4.63;3.08;;;;;;;;;;5034921;28;20121;-84
2023/09/02 04:53:01;;;;;;;3.42;2.67;;;;;;;;;;5034247;28;20381;-86
2023/09/02 04:55:28;;;;;;;5.25;3.50;;;;;;;;;;5033999;28;20025;-87
2023/09/02 04:57:58;;;;;;;4.00;2.67;;;;;;;;;;5016563;28;20612;-86
2023/09/02 05:00:27;;;;;;;4.68;2.65;;;;;;;;;;5015801;28;20083;-86
2023/09/02 05:02:53;;;;;;;6.43;3.10;;;;;;;;;;5019567;28;20458;-82
2023/09/02 05:05:21;;;;;;;5.50;3.00;;;;;;;;;;5037410;28;20060;-85
2023/09/02 05:07:47;;;;;;;3.70;3.30;;;;;;;;;;5035484;28;20029;-84
2023/09/02 05:10:14;;;;;;;4.43;2.58;;;;;;;;;;5018101;28;20083;-83
2023/09/02 05:12:40;;;;;;;3.13;2.67;;;;;;;;;;5018429;28;20071;-83
2023/09/02 05:15:06;;;;;;;4.53;3.55;;;;;;;;;;5003304;28;20030;-87
2023/09/02 05:17:32;;;;;;;4.68;2.95;;;;;;;;;;5037211;28;20029;-81
2023/09/02 05:20:03;;;;;;;4.90;2.78;;;;;;;;;;5018740;28;20025;-87
2023/09/02 05:22:29;;;;;;;3.70;2.40;;;;;;;;;;5037831;28;20514;-86
2023/09/02 05:24:54;;;;;;;4.60;2.22;;;;;;;;;;5015814;28;20030;-82
2023/09/02 05:27:21;;;;;;;4.63;2.58;;;;;;;;;;5016395;28;20034;-86
2023/09/02 05:29:46;;;;;;;2.30;2.00;;;;;;;;;;5015399;28;20092;-86
2023/09/02 05:32:13;;;;;;;4.10;2.78;;;;;;;;;;5015159;28;20123;-86
2023/09/02 05:34:40;;;;;;;4.00;2.15;;;;;;;;;;5016287;28;20033;-85
2023/09/02 05:37:05;;;;;;;5.57;2.15;;;;;;;;;;5017004;28;20398;-86
2023/09/02 05:39:31;;;;;;;2.53;2.20;;;;;;;;;;5016440;28;20087;-87
2023/09/02 05:41:57;;;;;;;2.88;1.90;;;;;;;;;;5015597;28;20033;-86
2023/09/02 05:44:22;;;;;;;9.40;2.28;;;;;;;;;;5019976;28;20025;-85
2023/09/02 05:46:48;;;;;;;2.65;1.83;;;;;;;;;;5020691;28;20030;-87
2023/09/02 05:49:14;;;;;;;3.40;2.30;;;;;;;;;;5037906;28;20440;-87
2023/09/02 05:51:40;;;;;;;4.78;2.20;;;;;;;;;;5018660;28;20104;-85
2023/09/02 05:54:09;;;;;;;2.40;2.00;;;;;;;;;;5036330;28;20096;-86
2023/09/02 05:56:38;;;;;;;5.60;3.70;;;;;;;;;;5037562;28;20101;-88
2023/09/02 05:59:05;;;;;;;3.13;2.50;;;;;;;;;;5018778;28;20112;-87
2023/09/02 06:01:31;;;;;;;5.88;2.72;;;;;;;;;;5035418;28;20055;-83
2023/09/02 06:03:57;;;;;;;8.25;2.40;;;;;;;;;;5036137;28;20508;-86
2023/09/02 06:06:22;;;;;;;4.63;2.50;;;;;;;;;;5017958;28;20025;-86
2023/09/02 06:08:48;;;;;;;2.97;2.45;;;;;;;;;;5035477;28;20111;-86
2023/09/02 06:11:14;;;;;;;5.60;2.60;;;;;;;;;;5018118;28;20508;-85
2023/09/02 06:13:40;;;;;;;2.60;2.40;;;;;;;;;;5016592;28;20172;-85
2023/09/02 06:16:07;;;;;;;4.97;2.13;;;;;;;;;;5018772;28;20037;-86
2023/09/02 06:18:33;;;;;;;2.03;1.75;;;;;;;;;;5035565;28;20329;-85
2023/09/02 06:21:15;;;;;;;4.88;2.78;;;;;;;;;;5017965;28;20111;-85
2023/09/02 06:23:45;;;;;;;3.50;2.40;;;;;;;;;;5017438;28;20032;-87
2023/09/02 06:26:14;;;;;;;2.22;1.70;;;;;;;;;;5018010;28;20026;-85
2023/09/02 06:28:40;;;;;;;4.95;2.10;;;;;;;;;;5018351;28;20053;-87
2023/09/02 06:31:10;;;;;;;4.22;2.30;;;;;;;;;;5018373;28;20025;-85
2023/09/02 06:33:36;;;;;;;3.58;2.83;;;;;;;;;;5018240;28;20915;-84
2023/09/02 06:36:21;;;;;;;4.55;2.10;;;;;;;;;;5038129;28;20025;-86
2023/09/02 06:38:47;;;;;;;5.75;2.22;;;;;;;;;;5018867;28;20451;-87
2023/09/02 06:41:15;;;;;;;4.35;2.58;;;;;;;;;;5038675;28;20112;-85
2023/09/02 06:43:44;;;;;;;4.65;2.42;;;;;;;;;;5021483;28;20037;-86
2023/09/02 06:46:13;;;;;;;5.75;2.38;;;;;;;;;;5038044;28;20071;-86
2023/09/02 06:48:39;;;;;;;3.70;2.45;;;;;;;;;;5017401;28;20457;-87
2023/09/02 06:51:05;;;;;;;6.18;2.95;;;;;;;;;;5018395;28;20026;-86
2023/09/02 06:53:30;;;;;;;4.53;3.15;;;;;;;;;;5035226;28;20029;-86
2023/09/02 06:55:55;;;;;;;7.63;2.88;;;;;;;;;;5017713;28;20035;-87
2023/09/02 06:58:21;;;;;;;3.67;2.20;;;;;;;;;;5018060;28;20169;-85
2023/09/02 07:00:52;;;;;;;8.40;2.50;;;;;;;;;;5019175;28;20170;-86
2023/09/02 07:24:16;;;;;;;6.43;3.80;;;;;;;;;;5033517;23;20056;-80
2023/09/02 07:26:50;;;;;;;4.68;2.50;;;;;;;;;;5075175;28;20020;-82
2023/09/02 07:29:17;;;;;;;2.60;2.38;;;;;;;;;;5079691;28;20031;-81
2023/09/02 07:31:48;;;;;;;9.80;2.65;;;;;;;;;;5065144;28;20115;-79
2023/09/02 07:37:50;;;;;;;5.07;2.90;;;;;;;;;;5050845;28;19908;-80
2023/09/02 07:40:33;;;;;;;8.23;2.40;;;;;;;;;;5084040;28;20340;-81
2023/09/02 07:43:06;;;;;;;10.43;5.75;;;;;;;;;;5063296;28;20036;-80
2023/09/02 07:45:34;;;;;;;3.90;2.85;;;;;;;;;;5064363;28;20033;-83
2023/09/02 07:48:04;;;;;;;8.27;3.35;;;;;;;;;;5063535;28;20028;-80
2023/09/02 07:50:34;;;;;;;4.10;2.80;;;;;;;;;;5080905;28;20091;-81
2023/09/02 07:53:03;;;;;;;3.67;2.28;;;;;;;;;;5081423;28;20043;-81
2023/09/02 07:55:29;;;;;;;4.28;3.03;;;;;;;;;;5063974;28;20433;-80
2023/09/02 07:57:59;;;;;;;4.57;3.13;;;;;;;;;;5061587;28;20031;-82
2023/09/02 08:00:33;;;;;;;7.25;2.85;;;;;;;;;;5060815;28;20028;-82
2023/09/02 08:03:02;;;;;;;7.93;2.33;;;;;;;;;;5066123;28;20060;-82
2023/09/02 08:05:31;;;;;;;4.35;2.22;;;;;;;;;;5064712;28;20020;-82
2023/09/02 08:07:57;;;;;;;5.78;2.08;;;;;;;;;;5063509;28;20036;-80
2023/09/02 08:10:24;;;;;;;7.82;2.72;;;;;;;;;;5082459;28;20346;-79
2023/09/02 08:12:49;;;;;;;5.80;2.20;;;;;;;;;;5061683;28;20035;-81
2023/09/02 08:15:20;;;;;;;4.88;2.28;;;;;;;;;;5062865;28;20021;-81
2023/09/02 08:17:45;;;;;;;2.47;2.00;;;;;;;;;;5063277;28;20029;-79
2023/09/02 08:20:19;;;;;;;2.90;2.17;;;;;;;;;;5064612;28;20031;-82
2023/09/02 08:22:45;;;;;;;3.78;2.47;;;;;;;;;;5081471;28;20028;-83
2023/09/02 08:25:13;;;;;;;3.63;2.30;;;;;;;;;;5081629;28;20055;-79
2023/09/02 08:27:42;;;;;;;3.80;2.70;;;;;;;;;;5063220;28;20041;-80
2023/09/02 08:30:08;;;;;;;3.97;2.22;;;;;;;;;;5080965;28;20036;-83
2023/09/02 08:32:36;;;;;;;6.63;2.70;;;;;;;;;;5063594;28;20035;-80
2023/09/02 08:35:02;;;;;;;3.63;2.38;;;;;;;;;;5081817;28;20024;-81
2023/09/02 08:37:31;;;;;;;4.30;2.92;;;;;;;;;;5084827;28;20017;-79
2023/09/02 08:39:57;;;;;;;5.28;2.85;;;;;;;;;;5066371;28;20372;-82
2023/09/02 08:42:25;;;;;;;3.80;2.88;;;;;;;;;;5066523;28;20052;-85
2023/09/02 08:44:55;;;;;;;5.70;3.35;;;;;;;;;;5085348;28;20028;-82
2023/09/02 08:47:22;;;;;;;5.22;4.00;;;;;;;;;;5067180;28;20035;-82
2023/09/02 08:49:50;;;;;;;6.20;3.92;;;;;;;;;;5066468;28;20024;-83
2023/09/02 08:52:16;;;;;;;5.13;3.97;;;;;;;;;;5049403;28;20029;-80
2023/09/02 08:54:43;;;;;;;6.43;4.40;;;;;;;;;;5050502;28;20044;-82
2023/09/02 08:57:15;;;;;;;4.07;3.35;;;;;;;;;;5048380;28;20054;-81
2023/09/02 08:59:41;;;;;;;5.03;4.53;;;;;;;;;;5066262;28;20039;-82
2023/09/02 09:02:10;;;;;;;5.93;4.38;;;;;;;;;;5066012;28;20033;-81
2023/09/02 09:04:37;;;;;;;5.82;4.70;;;;;;;;;;5084642;28;20085;-81
2023/09/02 09:07:04;;;;;;;4.72;4.00;;;;;;;;;;5066622;28;20071;-82
2023/09/02 09:09:36;;;;;;;5.82;4.63;;;;;;;;;;5085106;28;20060;-82
2023/09/02 09:12:05;;;;;;;5.53;4.13;;;;;;;;;;5066193;28;20397;-82
2023/09/02 09:14:33;;;;;;;4.93;4.15;;;;;;;;;;5065462;28;20040;-82
2023/09/02 09:17:00;;;;;;;7.07;4.38;;;;;;;;;;5065442;28;20250;-81
2023/09/02 09:19:27;;;;;;;8.27;4.82;;;;;;;;;;5083649;28;20487;-83
2023/09/02 09:21:55;;;;;;;5.35;4.47;;;;;;;;;;5065870;28;20032;-83
2023/09/02 09:24:23;;;;;;;6.82;4.85;;;;;;;;;;5083986;28;20049;-83
2023/09/02 09:26:50;;;;;;;6.53;4.90;;;;;;;;;;5085149;28;20033;-81
2023/09/02 09:29:18;;;;;;;4.60;4.20;;;;;;;;;;5066488;28;20025;-81
2023/09/02 09:31:45;;;;;;;4.80;4.13;;;;;;;;;;5082812;28;20108;-82
2023/09/02 09:34:11;;;;;;;5.13;4.18;;;;;;;;;;5082961;28;20082;-80
2023/09/02 09:36:37;;;;;;;4.28;3.88;;;;;;;;;;5065061;28;20025;-83
2023/09/02 09:39:07;;;;;;;3.92;3.40;;;;;;;;;;5064812;28;20377;-82
2023/09/02 09:41:35;;;;;;;7.22;3.83;;;;;;;;;;5064365;28;20082;-82
2023/09/02 09:44:19;;;;;;;4.68;2.92;;;;;;;;;;5082956;28;20054;-81
2023/09/02 09:46:51;;;;;;;4.28;3.05;;;;;;;;;;5080140;28;20081;-83
2023/09/02 09:49:25;;;;;;;3.92;3.40;;;;;;;;;;5083815;28;20080;-82
2023/09/02 09:52:03;;;;;;;4.85;2.67;;;;;;;;;;5083087;28;20100;-83
2023/09/02 09:54:37;;;;;;;3.40;3.10;;;;;;;;;;5065969;28;20035;-83
2023/09/02 09:57:14;;;;;;;2.72;2.50;;;;;;;;;;5082993;28;20127;-82
2023/09/02 09:59:51;;;;;;;4.20;3.00;;;;;;;;;;5047981;28;20025;-80
2023/09/02 10:02:18;;;;;;;5.85;2.80;;;;;;;;;;5048820;28;20058;-79
2023/09/02 10:04:56;;;;;;;5.30;3.05;;;;;;;;;;5082755;28;20032;-83
2023/09/02 10:07:27;;;;;;;3.60;3.22;;;;;;;;;;5083037;28;20029;-80
2023/09/02 10:09:54;;;;;;;3.13;2.83;;;;;;;;;;5064860;28;20028;-82
2023/09/02 10:12:22;;;;;;;3.40;3.10;;;;;;;;;;5065123;28;20043;-83
2023/09/02 10:14:48;;;;;;;3.13;2.92;;;;;;;;;;5081365;28;20112;-80
2023/09/02 10:17:16;;;;;;;3.75;2.75;;;;;;;;;;5047777;28;20029;-82
2023/09/02 10:19:43;;;;;;;2.90;2.58;;;;;;;;;;5047619;28;20028;-82
2023/09/02 10:22:13;;;;;;;3.33;2.70;;;;;;;;;;5046840;28;20388;-81
2023/09/02 10:24:59;;;;;;;3.13;2.83;;;;;;;;;;5063446;28;20516;-83
2023/09/02 10:27:29;;;;;;;4.95;2.70;;;;;;;;;;5063281;28;20036;-81
2023/09/02 10:29:57;;;;;;;6.00;4.10;;;;;;;;;;5081172;28;20020;-80
2023/09/02 10:32:34;;;;;;;4.18;3.13;;;;;;;;;;5064158;28;20031;-81
2023/09/02 10:35:34;;;;;;;4.65;2.72;;;;;;;;;;5081398;28;20029;-81
2023/09/02 10:38:05;;;;;;;3.97;2.70;;;;;;;;;;5038823;28;20044;-82
2023/09/02 10:40:39;;;;;;;4.85;3.53;;;;;;;;;;5064093;28;20032;-80
2023/09/02 10:43:09;;;;;;;4.15;3.55;;;;;;;;;;5064338;28;20029;-81
2023/09/02 10:45:36;;;;;;;6.30;4.05;;;;;;;;;;5064693;28;20036;-83
2023/09/02 10:48:04;;;;;;;4.30;3.90;;;;;;;;;;5064594;28;20032;-80
2023/09/02 10:50:29;;;;;;;4.40;4.00;;;;;;;;;;5062980;28;20036;-82
2023/09/02 10:52:55;;;;;;;4.85;3.83;;;;;;;;;;5063742;28;20028;-82
2023/09/02 10:56:01;;;;;;;4.60;3.38;;;;;;;;;;5082153;28;20021;-81
2023/09/02 10:58:27;;;;;;;5.75;3.97;;;;;;;;;;5079020;28;20111;-83
2023/09/02 11:00:53;;;;;;;3.58;3.20;;;;;;;;;;5062195;28;20548;-82
2023/09/02 11:03:44;;;;;;;8.07;3.65;;;;;;;;;;5063551;28;20113;-84
2023/09/02 11:06:15;;;;;;;3.30;3.00;;;;;;;;;;5077814;28;20060;-83
2023/09/02 11:08:49;;;;;;;5.47;3.00;;;;;;;;;;5081239;28;20089;-82
2023/09/02 11:11:19;;;;;;;2.97;2.60;;;;;;;;;;5063886;28;20101;-86
2023/09/02 11:14:07;;;;;;;5.30;3.40;;;;;;;;;;5064441;28;20036;-82
2023/09/02 11:16:42;;;;;;;3.30;3.00;;;;;;;;;;5080877;28;20028;-83
2023/09/02 11:19:18;;;;;;;3.72;3.13;;;;;;;;;;5063992;28;20487;-81
2023/09/02 11:21:49;;;;;;;3.75;3.00;;;;;;;;;;5063640;28;20029;-83
2023/09/02 11:24:29;;;;;;;3.80;2.50;;;;;;;;;;5063120;28;20052;-83
2023/09/02 11:26:59;;;;;;;2.85;2.55;;;;;;;;;;5062649;28;20031;-82
2023/09/02 11:29:35;;;;;;;3.80;2.95;;;;;;;;;;5081662;28;20036;-81
2023/09/02 11:32:07;;;;;;;6.35;2.65;;;;;;;;;;5047327;28;20029;-84
2023/09/02 11:34:36;;;;;;;4.28;2.83;;;;;;;;;;5063602;28;20060;-82
2023/09/02 11:37:07;;;;;;;3.85;2.35;;;;;;;;;;5063316;28;20047;-82
2023/09/02 11:39:35;;;;;;;3.08;2.78;;;;;;;;;;5062622;28;20369;-81
2023/09/02 11:42:12;;;;;;;3.05;2.75;;;;;;;;;;5062686;28;20035;-84
2023/09/02 11:44:51;;;;;;;3.33;2.40;;;;;;;;;;5020865;28;20096;-82
2023/09/02 11:47:29;;;;;;;7.10;2.40;;;;;;;;;;5039138;28;20029;-82
2023/09/02 11:50:03;;;;;;;3.22;2.65;;;;;;;;;;5023807;28;20044;-82
2023/09/02 11:52:31;;;;;;;3.63;2.47;;;;;;;;;;5040053;28;20168;-83
2023/09/02 11:54:57;;;;;;;4.53;2.40;;;;;;;;;;5039205;28;20041;-81
2023/09/02 11:57:22;;;;;;;2.95;2.55;;;;;;;;;;5023074;28;20473;-82
2023/09/02 11:59:48;;;;;;;4.25;2.55;;;;;;;;;;5023503;28;20160;-81
2023/09/02 12:02:16;;;;;;;3.20;2.28;;;;;;;;;;5038896;28;20033;-82
2023/09/02 12:04:44;;;;;;;3.50;2.20;;;;;;;;;;5038103;28;20037;-83
2023/09/02 12:07:11;;;;;;;3.00;2.58;;;;;;;;;;5021430;28;20022;-81
2023/09/02 12:09:38;;;;;;;4.57;1.95;;;;;;;;;;5023043;28;20686;-82
2023/09/02 12:12:05;;;;;;;2.97;2.22;;;;;;;;;;5012137;28;20050;-83
2023/09/02 12:14:30;;;;;;;4.68;2.35;;;;;;;;;;5031095;28;20053;-80
2023/09/02 12:16:58;;;;;;;3.40;2.28;;;;;;;;;;5069998;28;20528;-82
2023/09/02 12:19:25;;;;;;;2.90;2.63;;;;;;;;;;5088455;28;20028;-82
2023/09/02 12:21:52;;;;;;;3.00;2.58;;;;;;;;;;5087272;28;20028;-81
2023/09/02 12:24:18;;;;;;;3.83;2.15;;;;;;;;;;5068704;28;20064;-83
2023/09/02 12:26:49;;;;;;;2.47;2.28;;;;;;;;;;5069335;28;20082;-83
2023/09/02 12:29:19;;;;;;;4.50;2.20;;;;;;;;;;5070003;28;20024;-82
2023/09/02 12:31:55;;;;;;;3.75;2.40;;;;;;;;;;5069146;28;20056;-83
2023/09/02 12:34:25;;;;;;;3.70;2.50;;;;;;;;;;5087259;28;20031;-84
2023/09/02 12:36:51;;;;;;;9.77;2.20;;;;;;;;;;5069790;28;20024;-82
2023/09/02 12:39:29;;;;;;;4.25;2.40;;;;;;;;;;5087853;28;20469;-83
2023/09/02 12:42:00;;;;;;;5.18;2.25;;;;;;;;;;5069741;28;20039;-81
2023/09/02 12:44:28;;;;;;;7.68;3.05;;;;;;;;;;5069483;28;20093;-81
2023/09/02 12:46:54;;;;;;;3.38;2.90;;;;;;;;;;5069471;28;20063;-81
2023/09/02 12:49:23;;;;;;;3.65;3.00;;;;;;;;;;5087357;28;20021;-84
2023/09/02 12:51:51;;;;;;;2.58;2.38;;;;;;;;;;5087112;28;20029;-81
2023/09/02 12:54:18;;;;;;;3.08;2.78;;;;;;;;;;5087946;28;20033;-79
2023/09/02 12:56:44;;;;;;;5.15;2.55;;;;;;;;;;5069190;28;20091;-83
2023/09/02 12:59:09;;;;;;;4.40;2.90;;;;;;;;;;5086359;28;20028;-81
2023/09/02 13:01:39;;;;;;;5.28;3.22;;;;;;;;;;5087860;28;20407;-83
2023/09/02 13:04:14;;;;;;;3.63;2.55;;;;;;;;;;5069743;28;20490;-81
2023/09/02 13:06:39;;;;;;;2.88;2.58;;;;;;;;;;5070017;28;20024;-80
2023/09/02 13:09:05;;;;;;;4.60;3.25;;;;;;;;;;5067306;28;20160;-82
2023/09/02 13:11:34;;;;;;;4.47;3.22;;;;;;;;;;5085877;28;20047;-83
2023/09/02 13:14:00;;;;;;;4.50;3.10;;;;;;;;;;5084683;28;20519;-83
2023/09/02 13:16:28;;;;;;;3.10;2.85;;;;;;;;;;5065854;28;20047;-83
2023/09/02 13:18:59;;;;;;;3.13;2.75;;;;;;;;;;5085315;28;20493;-83
2023/09/02 13:21:25;;;;;;;4.38;2.47;;;;;;;;;;5049777;28;20656;-82
2023/09/02 13:23:54;;;;;;;3.30;2.40;;;;;;;;;;5048034;28;20064;-83
2023/09/02 13:26:20;;;;;;;3.30;2.88;;;;;;;;;;5067061;28;20028;-82
2023/09/02 13:28:46;;;;;;;2.80;2.35;;;;;;;;;;5066770;28;20028;-81
2023/09/02 13:31:12;;;;;;;7.82;2.85;;;;;;;;;;5083968;28;20039;-81
2023/09/02 13:33:42;;;;;;;3.95;2.80;;;;;;;;;;5083261;28;20036;-82
2023/09/02 13:36:07;;;;;;;3.45;2.78;;;;;;;;;;5084130;28;20052;-80
2023/09/02 13:38:34;;;;;;;6.07;3.15;;;;;;;;;;5065935;28;20123;-81
2023/09/02 13:41:02;;;;;;;3.58;3.22;;;;;;;;;;5082520;28;20023;-81
2023/09/02 13:43:28;;;;;;;3.30;3.00;;;;;;;;;;5083747;28;20069;-82
2023/09/02 13:45:54;;;;;;;4.50;2.53;;;;;;;;;;5065158;28;20085;-81
2023/09/02 13:48:20;;;;;;;3.47;2.65;;;;;;;;;;5083111;28;20475;-81
2023/09/02 13:51:00;;;;;;;4.93;3.40;;;;;;;;;;5065766;28;20021;-80
2023/09/02 13:53:29;;;;;;;4.03;3.63;;;;;;;;;;5061234;28;20147;-81
2023/09/02 13:55:58;;;;;;;20.50;3.30;;;;;;;;;;5027650;28;20144;-81
2023/09/02 13:58:24;;;;;;;4.38;3.38;;;;;;;;;;5061523;28;20037;-82
2023/09/02 14:00:52;;;;;;;3.55;2.72;;;;;;;;;;5045174;28;20021;-82
2023/09/02 14:03:23;;;;;;;3.83;3.50;;;;;;;;;;5061718;28;20033;-81
2023/09/02 14:05:51;;;;;;;4.80;3.25;;;;;;;;;;5061403;28;20041;-81
2023/09/02 14:08:21;;;;;;;6.22;2.83;;;;;;;;;;5028274;28;20028;-83
2023/09/02 14:10:56;;;;;;;4.22;3.80;;;;;;;;;;5045233;28;20489;-82
2023/09/02 14:13:23;;;;;;;3.80;2.85;;;;;;;;;;5044461;28;20029;-83
2023/09/02 14:15:49;;;;;;;5.35;3.63;;;;;;;;;;5060873;28;20056;-81
2023/09/02 14:18:16;;;;;;;4.47;3.20;;;;;;;;;;5060887;28;20037;-80
2023/09/02 14:20:50;;;;;;;2.97;2.67;;;;;;;;;;5043699;28;20447;-83
2023/09/02 14:23:19;;;;;;;3.72;2.92;;;;;;;;;;5060811;28;20517;-82
2023/09/02 14:25:52;;;;;;;3.20;2.90;;;;;;;;;;5061527;28;20013;-82
2023/09/02 14:28:21;;;;;;;2.80;2.50;;;;;;;;;;5061273;28;20028;-81
2023/09/02 14:30:47;;;;;;;5.20;2.38;;;;;;;;;;5071557;28;20043;-82
2023/09/02 14:33:13;;;;;;;3.58;2.55;;;;;;;;;;5047464;28;20024;-80
2023/09/02 14:35:40;;;;;;;3.63;2.50;;;;;;;;;;5064228;28;20515;-82
2023/09/02 14:38:06;;;;;;;4.15;3.20;;;;;;;;;;5064549;28;20082;-82
2023/09/02 14:40:32;;;;;;;5.15;2.80;;;;;;;;;;5082216;28;20099;-82
2023/09/02 14:42:59;;;;;;;7.53;2.75;;;;;;;;;;5082625;28;20036;-82
2023/09/02 14:45:27;;;;;;;5.63;3.80;;;;;;;;;;5083180;28;20516;-82
2023/09/02 14:47:53;;;;;;;3.15;2.85;;;;;;;;;;5063316;28;20133;-79
2023/09/02 14:50:24;;;;;;;4.70;2.60;;;;;;;;;;5063698;28;20024;-81
2023/09/02 14:52:51;;;;;;;5.53;3.00;;;;;;;;;;5048010;28;20024;-81
2023/09/02 14:55:19;;;;;;;2.72;2.53;;;;;;;;;;5063401;28;20056;-83
2023/09/02 14:57:45;;;;;;;4.28;2.33;;;;;;;;;;5079938;28;20070;-81
2023/09/02 15:00:12;;;;;;;3.17;2.58;;;;;;;;;;5081188;28;20430;-81
2023/09/02 15:02:40;;;;;;;4.38;2.85;;;;;;;;;;5082383;28;20028;-81
2023/09/02 15:05:16;;;;;;;3.25;2.60;;;;;;;;;;5064345;28;20117;-81
2023/09/02 15:07:43;;;;;;;3.75;2.70;;;;;;;;;;5063989;28;20028;-81
2023/09/02 15:10:22;;;;;;;5.53;3.22;;;;;;;;;;5064251;28;20088;-82
2023/09/02 15:12:49;;;;;;;3.00;2.70;;;;;;;;;;5082731;28;20034;-82
2023/09/02 15:15:15;;;;;;;4.55;3.08;;;;;;;;;;5047346;28;20033;-83